Time;durP1;ratioP1;P1;durP2;ratioP2;P2;SDS_P1;SDS_P2;PMS_P1;PMS_P2;Temp;Humidity;BMP_temperature;BMP_pressure;BME280_temperature;BME280_humidity;BME280_pressure;Samples;Min_cycle;Max_cycle;Signal;HPM_P1;HPM_P2
2023/12/27 00:02:02;;;;;;;;;;;6.10;99.90;;;;;;5104217;28;19987;-71
2023/12/27 00:04:28;;;;;;;;;;;6.10;99.90;;;;;;5103916;28;19920;-71
2023/12/27 00:06:55;;;;;;;;;;;6.00;99.90;;;;;;5103210;28;19928;-71
2023/12/27 00:09:22;;;;;;;;;;;6.00;99.90;;;;;;5105010;28;19942;-72
2023/12/27 00:11:50;;;;;;;;;;;5.90;99.90;;;;;;5105746;28;19919;-71
2023/12/27 00:14:16;;;;;;;;;;;5.90;99.90;;;;;;5099372;28;19999;-71
2023/12/27 00:16:43;;;;;;;;;;;5.90;99.90;;;;;;5104061;28;19982;-71
2023/12/27 00:19:10;;;;;;;;;;;5.90;99.90;;;;;;5110635;28;20012;-70
2023/12/27 00:21:36;;;;;;;;;;;5.90;99.90;;;;;;5104347;28;19987;-72
2023/12/27 00:24:03;;;;;;;;;;;5.90;99.90;;;;;;5107970;28;19924;-71
2023/12/27 00:26:30;;;;;;;;;;;5.80;99.90;;;;;;5110325;28;19947;-70
2023/12/27 00:28:58;;;;;;;;;;;5.80;99.90;;;;;;5105679;28;19920;-71
2023/12/27 00:31:24;;;;;;;;;;;5.80;99.90;;;;;;5110564;28;19987;-70
2023/12/27 00:33:51;;;;;;;;;;;5.80;99.90;;;;;;5097355;28;20459;-71
2023/12/27 00:36:19;;;;;;;;;;;5.80;99.90;;;;;;5104280;28;19924;-72
2023/12/27 00:38:45;;;;;;;;;;;5.80;99.90;;;;;;5102292;28;19952;-71
2023/12/27 00:41:12;;;;;;;;;;;5.80;99.90;;;;;;5108821;28;19928;-71
2023/12/27 00:43:38;;;;;;;;;;;5.80;99.90;;;;;;5094190;28;19975;-70
2023/12/27 00:46:07;;;;;;;;;;;5.90;99.90;;;;;;5095920;28;19983;-71
2023/12/27 00:48:34;;;;;;;;;;;5.90;99.90;;;;;;5108861;28;20254;-71
2023/12/27 00:51:02;;;;;;;;;;;6.00;99.90;;;;;;5099818;28;19920;-70
2023/12/27 00:53:28;;;;;;;;;;;5.90;99.90;;;;;;5098960;28;19921;-70
2023/12/27 00:55:55;;;;;;;;;;;5.90;99.90;;;;;;5102482;28;19952;-71
2023/12/27 00:58:22;;;;;;;;;;;5.90;99.90;;;;;;5123066;28;20146;-71
2023/12/27 01:00:48;;;;;;;;;;;5.90;99.90;;;;;;5106836;28;19926;-71
2023/12/27 01:03:16;;;;;;;;;;;5.90;99.90;;;;;;5106336;28;19979;-71
2023/12/27 01:05:43;;;;;;;;;;;5.90;99.90;;;;;;5104745;28;20252;-73
2023/12/27 01:08:11;;;;;;;;;;;5.90;99.90;;;;;;5106072;28;19920;-72
2023/12/27 01:10:37;;;;;;;;;;;5.90;99.90;;;;;;5103118;28;19920;-71
2023/12/27 01:13:04;;;;;;;;;;;6.00;99.90;;;;;;5100223;28;19921;-71
2023/12/27 01:15:30;;;;;;;;;;;6.00;99.90;;;;;;5105374;28;19986;-72
2023/12/27 01:17:57;;;;;;;;;;;6.00;99.90;;;;;;5108885;28;19979;-71
2023/12/27 01:20:25;;;;;;;;;;;6.00;99.90;;;;;;5096405;28;20163;-71
2023/12/27 01:22:52;;;;;;;;;;;5.90;99.90;;;;;;5097975;28;19926;-71
2023/12/27 01:25:18;;;;;;;;;;;6.00;99.90;;;;;;5108262;28;19927;-71
2023/12/27 01:27:46;;;;;;;;;;;5.90;99.90;;;;;;5098825;28;20178;-71
2023/12/27 01:30:12;;;;;;;;;;;6.00;99.90;;;;;;5107828;28;19920;-71
2023/12/27 01:32:39;;;;;;;;;;;6.00;99.90;;;;;;5108550;28;19960;-69
2023/12/27 01:35:06;;;;;;;;;;;5.90;99.90;;;;;;5105817;28;19927;-72
2023/12/27 01:37:34;;;;;;;;;;;5.90;99.90;;;;;;5107245;28;20118;-71
2023/12/27 01:40:01;;;;;;;;;;;5.90;99.90;;;;;;5111624;28;19951;-71
2023/12/27 01:42:27;;;;;;;;;;;5.90;99.90;;;;;;5105303;28;19951;-71
2023/12/27 01:44:54;;;;;;;;;;;5.90;99.90;;;;;;5097836;28;20202;-73
2023/12/27 01:47:20;;;;;;;;;;;5.90;99.90;;;;;;5101543;28;19939;-71
2023/12/27 01:49:47;;;;;;;;;;;5.90;99.90;;;;;;5096816;28;20094;-71
2023/12/27 01:52:14;;;;;;;;;;;5.90;99.90;;;;;;5109366;28;20253;-71
2023/12/27 01:54:42;;;;;;;;;;;5.90;99.90;;;;;;5106384;28;19959;-73
2023/12/27 01:57:08;;;;;;;;;;;5.90;99.90;;;;;;5096664;28;19987;-71
2023/12/27 01:59:35;;;;;;;;;;;5.90;99.90;;;;;;5104314;28;20258;-71
2023/12/27 02:02:02;;;;;;;;;;;6.00;99.90;;;;;;5102398;28;20189;-70
2023/12/27 02:04:28;;;;;;;;;;;5.90;99.90;;;;;;5104344;28;20246;-71
2023/12/27 02:06:55;;;;;;;;;;;6.00;99.90;;;;;;5110304;28;19983;-71
2023/12/27 02:09:22;;;;;;;;;;;6.00;99.90;;;;;;5109866;28;20146;-71
2023/12/27 02:11:51;;;;;;;;;;;6.00;99.90;;;;;;5104637;28;19951;-71
2023/12/27 02:14:17;;;;;;;;;;;6.00;99.90;;;;;;5103854;28;19920;-71
2023/12/27 02:16:44;;;;;;;;;;;6.00;99.90;;;;;;5107467;28;19920;-70
2023/12/27 02:19:14;;;;;;;;;;;6.00;99.90;;;;;;5111073;28;19951;-71
2023/12/27 02:21:40;;;;;;;;;;;6.00;99.90;;;;;;5101920;28;20149;-71
2023/12/27 02:24:08;;;;;;;;;;;6.00;99.90;;;;;;5092733;28;19983;-71
2023/12/27 02:26:37;;;;;;;;;;;6.10;99.90;;;;;;5101423;28;19920;-72
2023/12/27 02:29:03;;;;;;;;;;;6.00;99.90;;;;;;5098255;28;20252;-71
2023/12/27 02:31:30;;;;;;;;;;;6.10;99.90;;;;;;5107426;28;19924;-71
2023/12/27 02:33:58;;;;;;;;;;;6.10;99.90;;;;;;5108191;28;20034;-74
2023/12/27 02:36:25;;;;;;;;;;;6.10;99.90;;;;;;5105748;28;19985;-73
2023/12/27 02:38:52;;;;;;;;;;;6.10;99.90;;;;;;5105728;28;19920;-71
2023/12/27 02:41:18;;;;;;;;;;;6.10;99.90;;;;;;5107623;28;20002;-71
2023/12/27 02:43:46;;;;;;;;;;;6.10;99.90;;;;;;5104185;28;19979;-71
2023/12/27 02:46:13;;;;;;;;;;;6.00;99.90;;;;;;5095851;28;19952;-71
2023/12/27 02:48:39;;;;;;;;;;;6.00;99.90;;;;;;5104593;28;19920;-71
2023/12/27 02:51:07;;;;;;;;;;;6.00;99.90;;;;;;5098452;28;20254;-71
2023/12/27 02:53:33;;;;;;;;;;;6.00;99.90;;;;;;5103489;28;19942;-71
2023/12/27 02:56:00;;;;;;;;;;;6.00;99.90;;;;;;5110152;28;20162;-71
2023/12/27 02:58:26;;;;;;;;;;;6.00;99.90;;;;;;5106806;28;19920;-71
2023/12/27 03:00:54;;;;;;;;;;;6.00;99.90;;;;;;5103837;28;20210;-72
2023/12/27 03:03:21;;;;;;;;;;;6.00;99.90;;;;;;5097167;28;19963;-70
2023/12/27 03:05:48;;;;;;;;;;;6.00;99.90;;;;;;5100231;28;19919;-71
2023/12/27 03:08:15;;;;;;;;;;;6.00;99.90;;;;;;5106783;28;19982;-70
2023/12/27 03:10:42;;;;;;;;;;;6.00;99.90;;;;;;5109714;28;19983;-71
2023/12/27 03:13:08;;;;;;;;;;;5.90;99.90;;;;;;5105566;28;19962;-70
2023/12/27 03:15:35;;;;;;;;;;;5.90;99.90;;;;;;5104298;28;20286;-71
2023/12/27 03:18:03;;;;;;;;;;;6.00;99.90;;;;;;5103000;28;19920;-70
2023/12/27 03:20:30;;;;;;;;;;;5.90;99.90;;;;;;5109748;28;19926;-71
2023/12/27 03:22:56;;;;;;;;;;;6.00;99.90;;;;;;5110063;28;20238;-71
2023/12/27 03:25:23;;;;;;;;;;;6.00;99.90;;;;;;5095483;28;19952;-70
2023/12/27 03:27:50;;;;;;;;;;;5.90;99.90;;;;;;5111447;28;19920;-70
2023/12/27 03:30:16;;;;;;;;;;;5.90;99.90;;;;;;5107342;28;20206;-71
2023/12/27 03:32:43;;;;;;;;;;;5.80;99.90;;;;;;5105291;28;19975;-73
2023/12/27 03:35:11;;;;;;;;;;;5.90;99.90;;;;;;5098523;28;19979;-70
2023/12/27 03:37:38;;;;;;;;;;;5.80;99.90;;;;;;5107647;28;20261;-71
2023/12/27 03:40:05;;;;;;;;;;;5.90;99.90;;;;;;5100595;28;19920;-71
2023/12/27 03:42:31;;;;;;;;;;;5.90;99.90;;;;;;5103553;28;19920;-71
2023/12/27 03:44:58;;;;;;;;;;;5.90;99.90;;;;;;5092361;28;19920;-70
2023/12/27 03:47:24;;;;;;;;;;;5.90;99.90;;;;;;5110057;28;19970;-71
2023/12/27 03:49:51;;;;;;;;;;;5.80;99.90;;;;;;5103257;28;20117;-70
2023/12/27 03:52:19;;;;;;;;;;;5.80;99.90;;;;;;5095884;28;19979;-71
2023/12/27 03:54:46;;;;;;;;;;;5.90;99.90;;;;;;5102549;28;19987;-71
2023/12/27 03:57:13;;;;;;;;;;;5.90;99.90;;;;;;5103404;28;19983;-71
2023/12/27 03:59:39;;;;;;;;;;;6.00;99.90;;;;;;5105181;28;19995;-71
2023/12/27 04:02:06;;;;;;;;;;;5.90;99.90;;;;;;5104285;28;19920;-69
2023/12/27 04:04:33;;;;;;;;;;;5.90;99.90;;;;;;5102760;28;19984;-71
2023/12/27 04:07:00;;;;;;;;;;;6.00;99.90;;;;;;5102768;28;19957;-71
2023/12/27 04:09:28;;;;;;;;;;;6.00;99.90;;;;;;5112242;28;19970;-71
2023/12/27 04:11:55;;;;;;;;;;;5.90;99.90;;;;;;5111458;28;19932;-71
2023/12/27 04:14:21;;;;;;;;;;;5.90;99.90;;;;;;5105186;28;19920;-71
2023/12/27 04:16:48;;;;;;;;;;;5.90;99.90;;;;;;5099155;28;19926;-71
2023/12/27 04:19:14;;;;;;;;;;;5.80;99.90;;;;;;5104261;28;20066;-70
2023/12/27 04:21:42;;;;;;;;;;;5.80;99.90;;;;;;5107199;28;19934;-71
2023/12/27 04:24:09;;;;;;;;;;;5.80;99.90;;;;;;5104155;28;19919;-71
2023/12/27 04:26:38;;;;;;;;;;;5.80;99.90;;;;;;5110830;28;19926;-72
2023/12/27 04:29:06;;;;;;;;;;;5.80;99.90;;;;;;5112490;28;19920;-71
2023/12/27 04:31:32;;;;;;;;;;;5.70;99.90;;;;;;5108675;28;19951;-71
2023/12/27 04:33:59;;;;;;;;;;;5.70;99.90;;;;;;5106325;28;19983;-70
2023/12/27 04:36:26;;;;;;;;;;;5.70;99.90;;;;;;5105724;28;19920;-70
2023/12/27 04:38:52;;;;;;;;;;;5.70;99.90;;;;;;5110950;28;19978;-71
2023/12/27 04:41:19;;;;;;;;;;;5.70;99.90;;;;;;5106166;28;20265;-71
2023/12/27 04:43:47;;;;;;;;;;;5.70;99.90;;;;;;5105919;28;19958;-71
2023/12/27 04:46:14;;;;;;;;;;;5.70;99.90;;;;;;5106018;28;19958;-71
2023/12/27 04:48:40;;;;;;;;;;;5.70;99.90;;;;;;5091353;28;19926;-71
2023/12/27 04:51:08;;;;;;;;;;;5.70;99.90;;;;;;5095023;28;19920;-71
2023/12/27 04:53:34;;;;;;;;;;;5.70;99.90;;;;;;5105486;28;19920;-71
2023/12/27 04:56:01;;;;;;;;;;;5.60;99.90;;;;;;5108799;28;19983;-71
2023/12/27 04:58:28;;;;;;;;;;;5.60;99.90;;;;;;5105643;28;19951;-70
2023/12/27 05:00:56;;;;;;;;;;;5.60;99.90;;;;;;5108459;28;19919;-73
2023/12/27 05:03:22;;;;;;;;;;;5.60;99.90;;;;;;5104940;28;19983;-71
2023/12/27 05:05:49;;;;;;;;;;;5.60;99.90;;;;;;5104949;28;19920;-71
2023/12/27 05:08:15;;;;;;;;;;;5.60;99.90;;;;;;5116957;28;20003;-71
2023/12/27 05:10:42;;;;;;;;;;;5.60;99.90;;;;;;5109177;28;19920;-71
2023/12/27 05:13:09;;;;;;;;;;;5.50;99.90;;;;;;5106571;28;19919;-71
2023/12/27 05:15:35;;;;;;;;;;;5.50;99.90;;;;;;5108800;28;19987;-71
2023/12/27 05:18:03;;;;;;;;;;;5.40;99.90;;;;;;5109003;28;19979;-71
2023/12/27 05:20:30;;;;;;;;;;;5.40;99.90;;;;;;5100964;28;19979;-73
2023/12/27 05:22:56;;;;;;;;;;;5.40;99.90;;;;;;5105831;28;19928;-73
2023/12/27 05:25:23;;;;;;;;;;;5.40;99.90;;;;;;5097529;28;19980;-71
2023/12/27 05:27:49;;;;;;;;;;;5.40;99.90;;;;;;5108962;28;19955;-70
2023/12/27 05:30:16;;;;;;;;;;;5.40;99.90;;;;;;5105859;28;20095;-71
2023/12/27 05:32:42;;;;;;;;;;;5.40;99.90;;;;;;5099518;28;20110;-70
2023/12/27 05:35:10;;;;;;;;;;;5.40;99.90;;;;;;5104061;28;19991;-73
2023/12/27 05:37:37;;;;;;;;;;;5.40;99.90;;;;;;5096350;28;20157;-71
2023/12/27 05:40:04;;;;;;;;;;;5.50;99.90;;;;;;5109227;28;19979;-73
2023/12/27 05:42:31;;;;;;;;;;;5.50;99.90;;;;;;5113480;28;19919;-72
2023/12/27 05:44:58;;;;;;;;;;;5.50;99.90;;;;;;5113424;28;19995;-71
2023/12/27 05:47:24;;;;;;;;;;;5.40;99.90;;;;;;5106973;28;19926;-72
2023/12/27 05:49:51;;;;;;;;;;;5.40;99.90;;;;;;5112968;28;19983;-70
2023/12/27 05:52:19;;;;;;;;;;;5.40;99.90;;;;;;5099319;28;19920;-73
2023/12/27 05:54:46;;;;;;;;;;;5.40;99.90;;;;;;5111935;28;20249;-70
2023/12/27 05:57:12;;;;;;;;;;;5.30;99.90;;;;;;5105020;28;19920;-72
2023/12/27 05:59:39;;;;;;;;;;;5.40;99.90;;;;;;5104132;28;19927;-71
2023/12/27 06:02:06;;;;;;;;;;;5.30;99.90;;;;;;5103150;28;19921;-71
2023/12/27 06:04:34;;;;;;;;;;;5.30;99.90;;;;;;5110364;28;19920;-72
2023/12/27 06:07:01;;;;;;;;;;;5.20;99.90;;;;;;5104865;28;19926;-70
2023/12/27 06:09:31;;;;;;;;;;;5.10;99.90;;;;;;5097085;28;20008;-70
2023/12/27 06:11:57;;;;;;;;;;;5.10;99.90;;;;;;5107445;28;20210;-72
2023/12/27 06:14:24;;;;;;;;;;;5.10;99.90;;;;;;5104256;28;19926;-71
2023/12/27 06:16:51;;;;;;;;;;;5.10;99.90;;;;;;5109641;28;20235;-73
2023/12/27 06:19:17;;;;;;;;;;;5.10;99.90;;;;;;5109530;28;19927;-70
2023/12/27 06:21:44;;;;;;;;;;;5.10;99.90;;;;;;5109329;28;19948;-75
2023/12/27 06:24:10;;;;;;;;;;;5.00;99.90;;;;;;5103742;28;19920;-71
2023/12/27 06:26:39;;;;;;;;;;;5.00;99.90;;;;;;5104036;28;19926;-71
2023/12/27 06:29:05;;;;;;;;;;;5.00;99.90;;;;;;5105907;28;20079;-70
2023/12/27 06:31:34;;;;;;;;;;;5.00;99.90;;;;;;5104456;28;19921;-71
2023/12/27 06:34:01;;;;;;;;;;;5.00;99.90;;;;;;5106825;28;19924;-71
2023/12/27 06:36:27;;;;;;;;;;;5.00;99.90;;;;;;5105328;28;19995;-71
2023/12/27 06:38:54;;;;;;;;;;;5.00;99.90;;;;;;5110553;28;19920;-72
2023/12/27 06:41:21;;;;;;;;;;;5.00;99.90;;;;;;5110478;28;20002;-71
2023/12/27 06:43:49;;;;;;;;;;;5.00;99.90;;;;;;5103820;28;19927;-71
2023/12/27 06:46:15;;;;;;;;;;;5.00;99.90;;;;;;5098023;28;19952;-71
2023/12/27 06:48:42;;;;;;;;;;;5.00;99.90;;;;;;5099867;28;19994;-72
2023/12/27 06:51:08;;;;;;;;;;;4.90;99.90;;;;;;5095900;28;19951;-70
2023/12/27 06:53:35;;;;;;;;;;;4.90;99.90;;;;;;5102805;28;19928;-70
2023/12/27 06:56:02;;;;;;;;;;;4.90;99.90;;;;;;5104687;28;19958;-70
2023/12/27 06:58:28;;;;;;;;;;;4.90;99.90;;;;;;5105960;28;19947;-72
2023/12/27 07:00:57;;;;;;;;;;;4.90;99.90;;;;;;5104123;28;19928;-70
2023/12/27 07:03:24;;;;;;;;;;;4.90;99.90;;;;;;5106117;28;20015;-70
2023/12/27 07:05:51;;;;;;;;;;;4.90;99.90;;;;;;5108210;28;20210;-70
2023/12/27 07:08:18;;;;;;;;;;;4.80;99.90;;;;;;5096522;28;19951;-70
2023/12/27 07:10:45;;;;;;;;;;;4.80;99.90;;;;;;5103313;28;19942;-71
2023/12/27 07:13:11;;;;;;;;;;;4.80;99.90;;;;;;5098114;28;20277;-70
2023/12/27 07:15:38;;;;;;;;;;;4.80;99.90;;;;;;5086615;28;20373;-70
2023/12/27 07:18:08;;;;;;;;;;;4.70;99.90;;;;;;5107704;28;20316;-70
2023/12/27 07:20:34;;;;;;;;;;;4.70;99.90;;;;;;5103591;28;19952;-69
2023/12/27 07:23:01;;;;;;;;;;;4.70;99.90;;;;;;5102896;28;20021;-71
2023/12/27 07:25:28;;;;;;;;;;;4.60;99.90;;;;;;5102013;28;20225;-71
2023/12/27 07:27:54;;;;;;;;;;;4.60;99.90;;;;;;5103422;28;19983;-70
2023/12/27 07:30:22;;;;;;;;;;;4.60;99.90;;;;;;5110838;28;19942;-70
2023/12/27 07:32:48;;;;;;;;;;;4.50;99.90;;;;;;5102306;28;20202;-70
2023/12/27 07:35:17;;;;;;;;;;;4.60;99.90;;;;;;5103724;28;19995;-69
2023/12/27 07:37:46;;;;;;;;;;;4.50;99.90;;;;;;5108052;28;19920;-70
2023/12/27 07:40:13;;;;;;;;;;;4.60;99.90;;;;;;5105513;28;19982;-69
2023/12/27 07:42:40;;;;;;;;;;;4.50;99.90;;;;;;5101293;28;20214;-70
2023/12/27 07:45:07;;;;;;;;;;;4.50;99.90;;;;;;5103401;28;19920;-70
2023/12/27 07:47:33;;;;;;;;;;;4.50;99.90;;;;;;5104285;28;19947;-71
2023/12/27 07:50:00;;;;;;;;;;;4.50;99.90;;;;;;5103129;28;20159;-69
2023/12/27 07:52:28;;;;;;;;;;;4.50;99.90;;;;;;5103114;28;19926;-71
2023/12/27 07:54:56;;;;;;;;;;;4.50;99.90;;;;;;5101786;28;20408;-69
2023/12/27 07:57:23;;;;;;;;;;;4.60;99.90;;;;;;5102236;28;20090;-70
2023/12/27 07:59:55;;;;;;;;;;;4.50;99.90;;;;;;5103037;28;19927;-70
2023/12/27 08:02:22;;;;;;;;;;;4.50;99.90;;;;;;5104342;28;19920;-72
2023/12/27 08:04:49;;;;;;;;;;;4.50;99.90;;;;;;5110068;28;20177;-70
2023/12/27 08:07:16;;;;;;;;;;;4.50;99.90;;;;;;5113080;28;19994;-69
2023/12/27 08:09:44;;;;;;;;;;;4.50;99.90;;;;;;5107140;28;19984;-71
2023/12/27 08:12:10;;;;;;;;;;;4.60;99.90;;;;;;5111127;28;19973;-69
2023/12/27 08:14:37;;;;;;;;;;;4.70;99.90;;;;;;5103827;28;20224;-71
2023/12/27 08:17:04;;;;;;;;;;;4.80;99.90;;;;;;5108636;28;19926;-70
2023/12/27 08:19:30;;;;;;;;;;;4.90;99.90;;;;;;5106030;28;19973;-70
2023/12/27 08:21:56;;;;;;;;;;;5.00;99.90;;;;;;5106522;28;19928;-70
2023/12/27 08:24:23;;;;;;;;;;;5.20;99.90;;;;;;5108478;28;19991;-70
2023/12/27 08:26:51;;;;;;;;;;;5.30;99.90;;;;;;5107984;28;19924;-70
2023/12/27 08:29:18;;;;;;;;;;;5.40;99.90;;;;;;5107939;28;20103;-70
2023/12/27 08:31:45;;;;;;;;;;;5.50;99.90;;;;;;5104286;28;19991;-70
2023/12/27 08:34:11;;;;;;;;;;;5.60;99.90;;;;;;5105757;28;20011;-70
2023/12/27 08:36:39;;;;;;;;;;;5.70;99.90;;;;;;5108634;28;20003;-70
2023/12/27 08:39:05;;;;;;;;;;;5.80;99.90;;;;;;5110529;28;19947;-70
2023/12/27 08:41:32;;;;;;;;;;;5.90;99.90;;;;;;5111766;28;19919;-69
2023/12/27 08:44:00;;;;;;;;;;;6.00;99.90;;;;;;5106551;28;19920;-70
2023/12/27 08:46:27;;;;;;;;;;;6.00;99.90;;;;;;5105431;28;19973;-72
2023/12/27 08:48:54;;;;;;;;;;;6.10;99.90;;;;;;5111475;28;19920;-70
2023/12/27 08:51:21;;;;;;;;;;;6.10;99.90;;;;;;5107709;28;19923;-71
2023/12/27 08:53:47;;;;;;;;;;;6.20;99.90;;;;;;5104695;28;19953;-71
2023/12/27 08:56:14;;;;;;;;;;;6.20;99.90;;;;;;5100547;28;19920;-70
2023/12/27 08:58:41;;;;;;;;;;;6.20;99.90;;;;;;5100333;28;20110;-70
2023/12/27 09:01:09;;;;;;;;;;;6.30;99.90;;;;;;5101058;28;19991;-72
2023/12/27 09:03:36;;;;;;;;;;;6.30;99.90;;;;;;5108032;28;19962;-70
2023/12/27 09:06:02;;;;;;;;;;;6.40;99.90;;;;;;5107441;28;19970;-70
2023/12/27 09:08:29;;;;;;;;;;;6.40;99.90;;;;;;5106075;28;19987;-70
2023/12/27 09:10:55;;;;;;;;;;;6.50;99.90;;;;;;5110877;28;20011;-72
2023/12/27 09:13:22;;;;;;;;;;;6.50;99.90;;;;;;5108103;28;19994;-70
2023/12/27 09:15:49;;;;;;;;;;;6.60;99.90;;;;;;5108060;28;19920;-71
2023/12/27 09:18:17;;;;;;;;;;;6.60;99.90;;;;;;5101483;28;19920;-69
2023/12/27 09:20:43;;;;;;;;;;;6.60;99.90;;;;;;5099766;28;19958;-71
2023/12/27 09:23:10;;;;;;;;;;;6.70;99.90;;;;;;5098494;28;20265;-70
2023/12/27 09:25:36;;;;;;;;;;;6.80;99.90;;;;;;5095003;28;20009;-71
2023/12/27 09:28:03;;;;;;;;;;;6.80;99.90;;;;;;5096912;28;19981;-71
2023/12/27 09:30:30;;;;;;;;;;;6.80;99.90;;;;;;5099072;28;19955;-70
2023/12/27 09:32:56;;;;;;;;;;;6.90;99.90;;;;;;5104797;28;20048;-71
2023/12/27 09:35:25;;;;;;;;;;;6.90;99.90;;;;;;5113172;28;19919;-71
2023/12/27 09:37:52;;;;;;;;;;;7.00;99.90;;;;;;5103460;28;19920;-71
2023/12/27 09:40:18;;;;;;;;;;;7.00;99.90;;;;;;5108117;28;20099;-70
2023/12/27 09:42:47;;;;;;;;;;;7.10;99.90;;;;;;5111067;28;20210;-71
2023/12/27 09:45:15;;;;;;;;;;;7.20;99.90;;;;;;5108762;28;19951;-71
2023/12/27 09:47:44;;;;;;;;;;;7.20;99.90;;;;;;5104342;28;19948;-70
2023/12/27 09:50:11;;;;;;;;;;;7.30;99.90;;;;;;5105145;28;19992;-72
2023/12/27 09:52:39;;;;;;;;;;;7.40;99.90;;;;;;5102224;28;20030;-72
2023/12/27 09:55:06;;;;;;;;;;;7.40;99.90;;;;;;5105329;28;19920;-71
2023/12/27 09:57:33;;;;;;;;;;;7.50;99.90;;;;;;5108564;28;20067;-71
2023/12/27 10:00:00;;;;;;;;;;;7.50;99.90;;;;;;5110620;28;19950;-71
2023/12/27 10:02:28;;;;;;;;;;;7.60;99.90;;;;;;5105839;28;19926;-71
2023/12/27 10:04:59;;;;;;;;;;;7.60;99.90;;;;;;5106167;28;19966;-72
2023/12/27 10:07:25;;;;;;;;;;;7.70;99.90;;;;;;5107506;28;19957;-71
2023/12/27 10:09:54;;;;;;;;;;;7.80;99.90;;;;;;5107786;28;19999;-72
2023/12/27 10:12:21;;;;;;;;;;;7.80;99.90;;;;;;5102383;28;19969;-71
2023/12/27 10:14:48;;;;;;;;;;;7.90;99.90;;;;;;5106701;28;21089;-71
2023/12/27 10:17:14;;;;;;;;;;;7.90;99.90;;;;;;5108802;28;19991;-71
2023/12/27 10:19:41;;;;;;;;;;;8.00;99.90;;;;;;5113044;28;19920;-73
2023/12/27 10:22:08;;;;;;;;;;;8.00;99.90;;;;;;5112738;28;19987;-71
2023/12/27 10:24:36;;;;;;;;;;;8.00;99.90;;;;;;5105058;28;19967;-71
2023/12/27 10:27:04;;;;;;;;;;;8.00;99.90;;;;;;5104831;28;19924;-71
2023/12/27 10:29:32;;;;;;;;;;;8.10;99.90;;;;;;5104384;28;19952;-71
2023/12/27 10:31:59;;;;;;;;;;;8.10;99.90;;;;;;5103885;28;19926;-71
2023/12/27 10:34:25;;;;;;;;;;;8.20;99.90;;;;;;5095774;28;20165;-70
2023/12/27 10:36:52;;;;;;;;;;;8.30;99.90;;;;;;5106608;28;20109;-71
2023/12/27 10:39:19;;;;;;;;;;;8.40;99.90;;;;;;5104885;28;19968;-70
2023/12/27 10:41:45;;;;;;;;;;;8.50;99.90;;;;;;5105471;28;20282;-71
2023/12/27 10:44:17;;;;;;;;;;;8.60;99.90;;;;;;5106273;28;21761;-70
2023/12/27 10:46:44;;;;;;;;;;;8.70;99.90;;;;;;5111146;28;19935;-70
2023/12/27 10:49:12;;;;;;;;;;;8.80;99.90;;;;;;5106362;28;19966;-70
2023/12/27 10:51:40;;;;;;;;;;;8.80;99.90;;;;;;5107786;28;20253;-70
2023/12/27 10:54:07;;;;;;;;;;;9.00;99.90;;;;;;5106890;28;19984;-70
2023/12/27 10:56:35;;;;;;;;;;;9.10;99.90;;;;;;5110361;28;20210;-71
2023/12/27 10:59:04;;;;;;;;;;;9.20;99.90;;;;;;5106652;28;19927;-72
2023/12/27 11:01:33;;;;;;;;;;;9.30;99.90;;;;;;5110330;28;19943;-71
2023/12/27 11:04:00;;;;;;;;;;;9.40;99.90;;;;;;5103417;28;20175;-71
2023/12/27 11:06:28;;;;;;;;;;;9.50;99.90;;;;;;5092911;28;20368;-71
2023/12/27 11:08:55;;;;;;;;;;;9.50;99.90;;;;;;5089680;28;20260;-71
2023/12/27 11:11:22;;;;;;;;;;;9.50;99.90;;;;;;5092064;28;19920;-72
2023/12/27 11:13:50;;;;;;;;;;;9.50;99.90;;;;;;5095408;28;19958;-71
2023/12/27 11:16:19;;;;;;;;;;;9.40;99.90;;;;;;5111588;28;20000;-71
2023/12/27 11:18:48;;;;;;;;;;;9.40;99.90;;;;;;5099174;28;19921;-71
2023/12/27 11:21:15;;;;;;;;;;;9.30;99.90;;;;;;5099775;28;19965;-70
2023/12/27 11:23:43;;;;;;;;;;;9.20;99.90;;;;;;5093442;28;19928;-70
2023/12/27 11:26:10;;;;;;;;;;;9.10;99.90;;;;;;5105052;28;20214;-70
2023/12/27 11:28:39;;;;;;;;;;;9.10;99.90;;;;;;5101626;28;19962;-71
2023/12/27 11:31:06;;;;;;;;;;;8.90;99.90;;;;;;5107821;28;19920;-70
2023/12/27 11:33:34;;;;;;;;;;;8.90;99.90;;;;;;5104924;28;19979;-71
2023/12/27 11:36:03;;;;;;;;;;;8.90;99.90;;;;;;5104266;28;19947;-73
2023/12/27 11:38:32;;;;;;;;;;;8.80;99.90;;;;;;5100366;28;20323;-73
2023/12/27 11:41:00;;;;;;;;;;;8.80;99.90;;;;;;5107235;28;20118;-72
2023/12/27 11:43:27;;;;;;;;;;;8.70;99.90;;;;;;5108177;28;19951;-72
2023/12/27 11:46:01;;;;;;;;;;;8.70;99.90;;;;;;5108245;28;19920;-72
2023/12/27 11:48:28;;;;;;;;;;;8.70;99.90;;;;;;5101158;28;19920;-72
2023/12/27 11:50:55;;;;;;;;;;;8.60;99.90;;;;;;5103267;28;20206;-72
2023/12/27 11:53:26;;;;;;;;;;;8.60;99.90;;;;;;5103341;28;20152;-72
2023/12/27 11:55:52;;;;;;;;;;;8.60;99.90;;;;;;5103758;28;19920;-72
2023/12/27 11:58:32;;;;;;;;;;;8.60;99.90;;;;;;5103510;28;19927;-73
2023/12/27 12:01:14;;;;;;;;;;;8.70;99.90;;;;;;5097401;28;19983;-71
2023/12/27 12:03:41;;;;;;;;;;;8.80;99.90;;;;;;5102698;28;19991;-72
2023/12/27 12:06:13;;;;;;;;;;;9.00;99.90;;;;;;5102900;28;19983;-72
2023/12/27 12:08:44;;;;;;;;;;;9.10;99.90;;;;;;5102910;28;19951;-71
2023/12/27 12:11:14;;;;;;;;;;;9.20;99.90;;;;;;5103305;28;19955;-72
2023/12/27 12:13:40;;;;;;;;;;;9.20;99.90;;;;;;5102761;28;19975;-71
2023/12/27 12:16:07;;;;;;;;;;;9.20;99.90;;;;;;5103573;28;19979;-71
2023/12/27 12:18:34;;;;;;;;;;;9.20;99.90;;;;;;5103224;28;19991;-72
2023/12/27 12:21:00;;;;;;;;;;;9.10;99.90;;;;;;5103490;28;19979;-72
2023/12/27 12:23:29;;;;;;;;;;;9.10;99.90;;;;;;5102548;28;19983;-72
2023/12/27 12:26:00;;;;;;;;;;;9.10;99.90;;;;;;5103450;28;19959;-72
2023/12/27 12:28:26;;;;;;;;;;;9.10;99.90;;;;;;5103305;28;19983;-71
2023/12/27 12:30:53;;;;;;;;;;;9.00;99.90;;;;;;5103283;28;19959;-71
2023/12/27 12:33:20;;;;;;;;;;;9.00;99.90;;;;;;5102702;28;19968;-72
2023/12/27 12:35:47;;;;;;;;;;;9.00;99.90;;;;;;5095344;28;19923;-72
2023/12/27 12:38:13;;;;;;;;;;;8.90;99.90;;;;;;5103141;28;19963;-72
2023/12/27 12:40:40;;;;;;;;;;;9.00;99.90;;;;;;5103115;28;19979;-72
2023/12/27 12:43:08;;;;;;;;;;;8.90;99.90;;;;;;5087075;28;20211;-72
2023/12/27 12:45:35;;;;;;;;;;;8.90;99.90;;;;;;5084027;28;19952;-72
2023/12/27 12:48:02;;;;;;;;;;;8.90;99.90;;;;;;5097171;28;19927;-72
2023/12/27 12:50:29;;;;;;;;;;;8.90;99.90;;;;;;5098791;28;19977;-72
2023/12/27 12:52:56;;;;;;;;;;;9.00;99.90;;;;;;5106092;28;19926;-72
2023/12/27 12:55:28;;;;;;;;;;;9.00;99.90;;;;;;5106721;28;19995;-72
2023/12/27 12:57:55;;;;;;;;;;;8.90;99.90;;;;;;5106287;28;20230;-72
2023/12/27 13:00:23;;;;;;;;;;;8.90;99.90;;;;;;5106535;28;20282;-72
2023/12/27 13:02:50;;;;;;;;;;;8.90;99.90;;;;;;5105839;28;20255;-72
2023/12/27 13:05:17;;;;;;;;;;;8.90;99.90;;;;;;5106380;28;20260;-71
2023/12/27 13:07:43;;;;;;;;;;;9.00;99.90;;;;;;5106463;28;19987;-71
2023/12/27 13:10:10;;;;;;;;;;;9.00;99.90;;;;;;5106280;28;20281;-72
2023/12/27 13:12:37;;;;;;;;;;;9.00;99.90;;;;;;5106553;28;19920;-71
2023/12/27 13:15:04;;;;;;;;;;;9.00;99.90;;;;;;5106253;28;19979;-71
2023/12/27 13:17:32;;;;;;;;;;;9.00;99.90;;;;;;5106280;28;19920;-72
2023/12/27 13:19:59;;;;;;;;;;;9.00;99.90;;;;;;5106022;28;19983;-71
2023/12/27 13:22:26;;;;;;;;;;;9.00;99.90;;;;;;5106003;28;19972;-72
2023/12/27 13:24:52;;;;;;;;;;;9.10;99.90;;;;;;5105557;28;19927;-72
2023/12/27 13:27:19;;;;;;;;;;;9.10;99.90;;;;;;5099795;28;19979;-72
2023/12/27 13:29:46;;;;;;;;;;;9.10;99.90;;;;;;5106379;28;20255;-71
2023/12/27 13:32:12;;;;;;;;;;;9.10;99.90;;;;;;5110713;28;19951;-72
2023/12/27 13:34:40;;;;;;;;;;;9.10;99.90;;;;;;5113725;28;19924;-71
2023/12/27 13:37:07;;;;;;;;;;;9.10;99.90;;;;;;5108393;28;19963;-71
2023/12/27 13:39:33;;;;;;;;;;;9.10;99.90;;;;;;5110290;28;20249;-71
2023/12/27 13:42:00;;;;;;;;;;;9.20;99.90;;;;;;5108178;28;19951;-71
2023/12/27 13:44:29;;;;;;;;;;;9.20;99.90;;;;;;5104290;28;19920;-73
2023/12/27 13:46:57;;;;;;;;;;;9.20;99.90;;;;;;5102732;28;19942;-71
2023/12/27 13:49:24;;;;;;;;;;;9.20;99.90;;;;;;5110917;28;20121;-71
2023/12/27 13:51:52;;;;;;;;;;;9.20;99.90;;;;;;5099069;28;19958;-73
2023/12/27 13:54:19;;;;;;;;;;;9.20;99.90;;;;;;5101651;28;19955;-71
2023/12/27 13:56:46;;;;;;;;;;;9.20;99.90;;;;;;5110988;28;19920;-72
2023/12/27 13:59:12;;;;;;;;;;;9.10;99.90;;;;;;5109200;28;19950;-71
2023/12/27 14:01:39;;;;;;;;;;;9.10;99.90;;;;;;5105123;28;20034;-71
2023/12/27 14:04:07;;;;;;;;;;;9.10;99.90;;;;;;5107317;28;19961;-71
2023/12/27 14:06:36;;;;;;;;;;;9.00;99.90;;;;;;5105630;28;19951;-72
2023/12/27 14:09:07;;;;;;;;;;;9.00;99.90;;;;;;5097857;28;20181;-71
2023/12/27 14:11:34;;;;;;;;;;;8.90;99.90;;;;;;5105511;28;19966;-71
2023/12/27 14:14:03;;;;;;;;;;;8.90;99.90;;;;;;5102477;28;19979;-71
2023/12/27 14:16:30;;;;;;;;;;;8.90;99.90;;;;;;5104666;28;20117;-70
2023/12/27 14:18:56;;;;;;;;;;;8.90;99.90;;;;;;5106032;28;19920;-72
2023/12/27 14:21:23;;;;;;;;;;;8.90;99.90;;;;;;5104689;28;19919;-71
2023/12/27 14:23:50;;;;;;;;;;;8.80;99.90;;;;;;5105094;28;19932;-75
2023/12/27 14:26:18;;;;;;;;;;;8.80;99.90;;;;;;5107492;28;19920;-72
2023/12/27 14:28:45;;;;;;;;;;;8.80;99.90;;;;;;5102567;28;19931;-71
2023/12/27 14:31:15;;;;;;;;;;;8.80;99.90;;;;;;5105684;28;19943;-71